Time;durP1;ratioP1;P1;durP2;ratioP2;P2;SDS_P1;SDS_P2;PMS_P1;PMS_P2;Temp;Humidity;BMP_temperature;BMP_pressure;BME280_temperature;BME280_humidity;BME280_pressure;Samples;Min_cycle;Max_cycle;Signal;HPM_P1;HPM_P2
2023/04/29 00:02:12;;;;;;;3.58;1.90;;;;;;;21.39;57.04;99133.84;5092921;28;20020;-69
2023/04/29 00:04:38;;;;;;;4.20;2.00;;;;;;;21.38;56.93;99116.22;5092661;28;20459;-69
2023/04/29 00:07:03;;;;;;;2.80;1.85;;;;;;;21.37;56.91;99119.84;5092731;28;20017;-69
2023/04/29 00:09:29;;;;;;;3.22;1.90;;;;;;;21.38;56.84;99116.22;5092570;28;20024;-68
2023/04/29 00:11:54;;;;;;;2.40;1.50;;;;;;;21.38;57.01;99121.53;5092647;28;20050;-69
2023/04/29 00:14:20;;;;;;;2.97;1.60;;;;;;;21.41;56.97;99131.94;5092736;28;20031;-70
2023/04/29 00:16:45;;;;;;;3.42;1.98;;;;;;;21.44;56.80;99137.03;5092489;28;20111;-70
2023/04/29 00:19:11;;;;;;;3.63;2.20;;;;;;;21.45;56.65;99148.50;5092611;28;20039;-68
2023/04/29 00:21:37;;;;;;;2.63;1.60;;;;;;;21.46;56.64;99153.69;5092611;28;20472;-68
2023/04/29 00:24:02;;;;;;;2.90;1.70;;;;;;;21.47;56.84;99151.91;5092479;28;20103;-68
2023/04/29 00:26:28;;;;;;;2.78;1.73;;;;;;;21.47;56.64;99141.28;5092184;28;20107;-69
2023/04/29 00:28:53;;;;;;;3.17;1.63;;;;;;;21.47;56.60;99141.28;5091798;28;20484;-69
2023/04/29 00:31:18;;;;;;;2.70;1.88;;;;;;;21.46;56.68;99135.13;5092479;28;20100;-69
2023/04/29 00:33:45;;;;;;;3.13;1.90;;;;;;;21.46;56.48;99131.63;5092322;28;20439;-67
2023/04/29 00:36:10;;;;;;;2.25;1.48;;;;;;;21.49;56.41;99139.38;5092120;28;20432;-69
2023/04/29 00:38:35;;;;;;;2.40;1.65;;;;;;;21.46;56.48;99145.75;5107958;28;20024;-69
2023/04/29 00:41:01;;;;;;;2.72;1.65;;;;;;;21.43;56.57;99145.09;5092041;28;20024;-69
2023/04/29 00:43:27;;;;;;;3.63;1.85;;;;;;;21.42;56.63;99138.97;5091994;28;20059;-69
2023/04/29 00:45:53;;;;;;;3.15;2.03;;;;;;;21.38;56.56;99132.16;5092108;28;20039;-69
2023/04/29 00:48:18;;;;;;;2.47;1.63;;;;;;;21.39;56.67;99144.47;5092228;28;20052;-69
2023/04/29 00:50:44;;;;;;;3.20;1.80;;;;;;;21.33;56.80;99144.88;5092200;28;20103;-68
2023/04/29 00:53:13;;;;;;;3.22;1.95;;;;;;;21.38;56.73;99148.06;5092129;28;20020;-70
2023/04/29 00:55:40;;;;;;;2.90;1.83;;;;;;;21.34;56.65;99151.88;5073629;28;20039;-69
2023/04/29 00:58:08;;;;;;;2.58;1.70;;;;;;;21.34;56.79;99154.53;5092090;28;20053;-69
2023/04/29 01:00:34;;;;;;;3.22;1.88;;;;;;;21.32;56.88;99153.81;5092017;28;20036;-69
2023/04/29 01:03:00;;;;;;;3.33;1.83;;;;;;;21.30;56.86;99145.06;5092027;28;20032;-69
2023/04/29 01:05:26;;;;;;;2.13;1.50;;;;;;;21.28;56.87;99162.91;5091860;28;20377;-69
2023/04/29 01:07:57;;;;;;;2.97;1.50;;;;;;;21.28;56.91;99173.53;5092142;28;20024;-68
2023/04/29 01:10:28;;;;;;;2.30;1.50;;;;;;;21.27;56.92;99162.06;5091375;28;20042;-68
2023/04/29 01:13:02;;;;;;;2.90;1.77;;;;;;;21.26;56.80;99164.81;5092224;28;20100;-69
2023/04/29 01:15:31;;;;;;;2.97;1.73;;;;;;;21.26;56.93;99159.53;5091749;28;20020;-69
2023/04/29 01:18:09;;;;;;;3.40;1.60;;;;;;;21.22;56.91;99164.19;5091789;28;20028;-69
2023/04/29 01:20:36;;;;;;;2.70;1.63;;;;;;;21.23;57.14;99160.56;5091877;28;20024;-68
2023/04/29 01:23:02;;;;;;;3.45;1.70;;;;;;;21.24;56.89;99150.78;5091884;28;20024;-68
2023/04/29 01:25:28;;;;;;;2.70;1.50;;;;;;;21.21;57.06;99154.50;5091385;28;20052;-67
2023/04/29 01:27:53;;;;;;;3.03;1.60;;;;;;;21.21;56.99;99158.97;5091668;28;20044;-67
2023/04/29 01:31:10;;;;;;;2.75;1.85;;;;;;;21.19;57.07;99149.31;5091914;28;20532;-68
2023/04/29 01:33:53;;;;;;;3.50;1.77;;;;;;;21.18;57.10;99152.94;5029465;28;20445;-69
2023/04/29 01:37:03;;;;;;;2.67;1.67;;;;;;;21.19;57.11;99149.31;5029345;28;20048;-68
2023/04/29 01:39:50;;;;;;;3.13;1.90;;;;;;;21.18;57.02;99152.94;5029249;28;20048;-69
2023/04/29 01:42:24;;;;;;;3.97;1.98;;;;;;;21.16;57.03;99152.16;5033263;28;20446;-69
2023/04/29 01:44:52;;;;;;;2.72;1.95;;;;;;;21.16;57.02;99149.50;5032930;28;20038;-67
2023/04/29 01:47:17;;;;;;;3.22;1.80;;;;;;;21.15;56.94;99142.50;5032845;28;20033;-69
2023/04/29 01:49:45;;;;;;;3.17;1.85;;;;;;;21.13;56.95;99141.78;5016467;28;20037;-69
2023/04/29 01:52:11;;;;;;;3.53;1.80;;;;;;;21.15;57.07;99139.84;5033096;28;20041;-69
2023/04/29 01:54:37;;;;;;;2.70;1.77;;;;;;;21.12;57.08;99148.00;5032636;28;20397;-67
2023/04/29 01:57:03;;;;;;;2.78;1.60;;;;;;;21.12;57.22;99140.03;5032554;28;20042;-68
2023/04/29 01:59:29;;;;;;;2.28;1.40;;;;;;;21.14;57.08;99140.81;5032640;28;20030;-69
2023/04/29 02:01:55;;;;;;;2.85;1.98;;;;;;;21.13;56.95;99143.56;5032833;28;20056;-69
2023/04/29 02:04:21;;;;;;;2.97;1.90;;;;;;;21.13;57.02;99144.44;5032746;28;20083;-68
2023/04/29 02:06:46;;;;;;;2.45;1.77;;;;;;;21.12;56.93;99148.00;5032457;28;20029;-69
2023/04/29 02:09:12;;;;;;;3.78;2.13;;;;;;;21.12;57.03;99148.00;5063878;28;20032;-69
2023/04/29 02:11:37;;;;;;;2.63;1.85;;;;;;;21.12;57.06;99157.78;5095047;28;20026;-69
2023/04/29 02:14:02;;;;;;;2.72;1.73;;;;;;;21.10;57.16;99155.22;5095096;28;20027;-67
2023/04/29 02:16:28;;;;;;;2.60;1.50;;;;;;;21.11;56.94;99156.09;5094904;28;20103;-69
2023/04/29 02:18:54;;;;;;;2.97;1.58;;;;;;;21.11;56.99;99158.75;5094900;28;20024;-67
2023/04/29 02:21:19;;;;;;;2.95;1.60;;;;;;;21.11;57.07;99150.78;5076628;28;20039;-69
2023/04/29 02:23:45;;;;;;;2.60;1.67;;;;;;;21.10;57.13;99160.53;5094490;28;20036;-69
2023/04/29 02:26:10;;;;;;;2.75;1.80;;;;;;;21.09;57.09;99169.44;5094842;28;20115;-69
2023/04/29 02:28:36;;;;;;;2.15;1.70;;;;;;;21.11;57.02;99162.22;5094047;28;20019;-66
2023/04/29 02:31:01;;;;;;;2.20;1.48;;;;;;;21.11;57.16;99162.22;5094631;28;20510;-68
2023/04/29 02:33:27;;;;;;;2.53;1.60;;;;;;;21.10;57.01;99157.88;5094640;28;20020;-69
2023/04/29 02:35:52;;;;;;;3.13;1.80;;;;;;;21.12;57.04;99158.63;5094258;28;20048;-68
2023/04/29 02:38:17;;;;;;;2.35;1.50;;;;;;;21.12;56.86;99161.28;5094092;28;20024;-69
2023/04/29 02:40:44;;;;;;;2.35;1.67;;;;;;;21.09;57.01;99164.16;5094431;28;20410;-69
2023/04/29 02:43:10;;;;;;;2.30;1.48;;;;;;;21.09;57.05;99152.66;5094507;28;20056;-68
2023/04/29 02:45:37;;;;;;;2.55;1.80;;;;;;;21.09;56.99;99158.84;5094165;28;20522;-68
2023/04/29 02:48:03;;;;;;;3.28;1.98;;;;;;;21.10;57.01;99152.56;5094370;28;20020;-67
2023/04/29 02:50:28;;;;;;;2.50;1.80;;;;;;;21.08;57.00;99156.28;5094391;28;20107;-70
2023/04/29 02:52:54;;;;;;;3.50;1.90;;;;;;;21.06;57.13;99151.94;5093273;28;20032;-68
2023/04/29 02:55:20;;;;;;;3.67;1.90;;;;;;;21.08;57.13;99159.78;5094045;28;20443;-68
2023/04/29 02:57:45;;;;;;;3.28;1.80;;;;;;;21.08;57.06;99161.59;5094217;28;20074;-68
2023/04/29 03:00:11;;;;;;;2.63;1.70;;;;;;;21.09;57.06;99163.28;5094242;28;20393;-69
2023/04/29 03:02:36;;;;;;;3.35;1.70;;;;;;;21.05;57.06;99163.50;5094086;28;20028;-68
2023/04/29 03:05:03;;;;;;;3.45;1.77;;;;;;;21.07;57.16;99152.78;5093837;28;20024;-69
2023/04/29 03:07:29;;;;;;;2.83;1.48;;;;;;;21.06;57.14;99161.69;5093462;28;20028;-70
2023/04/29 03:09:55;;;;;;;2.58;1.70;;;;;;;21.05;56.97;99155.53;5075925;28;20032;-69
2023/04/29 03:12:20;;;;;;;2.78;1.70;;;;;;;21.05;57.05;99162.63;5094093;28;20661;-70
2023/04/29 03:14:46;;;;;;;4.20;2.00;;;;;;;21.04;57.08;99155.63;5093640;28;20036;-69
2023/04/29 03:17:11;;;;;;;3.08;1.92;;;;;;;21.05;57.02;99158.19;5093670;28;20028;-69
2023/04/29 03:19:37;;;;;;;2.88;1.58;;;;;;;21.04;57.11;99153.84;5094060;28;20146;-68
2023/04/29 03:22:02;;;;;;;2.03;1.58;;;;;;;21.03;57.13;99153.94;5093135;28;20062;-69
2023/04/29 03:24:28;;;;;;;2.70;1.88;;;;;;;21.04;56.89;99150.34;5093743;28;20393;-68
2023/04/29 03:26:53;;;;;;;3.33;1.95;;;;;;;21.03;56.92;99159.25;5093314;28;20518;-69
2023/04/29 03:29:19;;;;;;;3.25;2.03;;;;;;;21.00;57.19;99148.81;5093640;28;20081;-68
2023/04/29 03:31:45;;;;;;;2.40;1.77;;;;;;;21.00;57.04;99149.69;5093592;28;20024;-70
2023/04/29 03:34:10;;;;;;;2.67;1.77;;;;;;;20.99;57.16;99152.44;5093171;28;20054;-67
2023/04/29 03:36:36;;;;;;;2.80;1.60;;;;;;;20.99;57.14;99157.75;5092897;28;20035;-70
2023/04/29 03:39:01;;;;;;;4.13;1.75;;;;;;;20.99;57.08;99157.75;5093270;28;20027;-69
2023/04/29 03:41:27;;;;;;;3.10;1.60;;;;;;;20.99;57.13;99160.38;5093109;28;20060;-69
2023/04/29 03:43:53;;;;;;;2.40;1.77;;;;;;;20.98;57.13;99161.34;5093216;28;20468;-70
2023/04/29 03:46:19;;;;;;;3.05;1.67;;;;;;;21.02;57.02;99165.50;5093136;28;20035;-67
2023/04/29 03:48:44;;;;;;;2.90;1.85;;;;;;;21.04;56.94;99161.81;5093201;28;20052;-68
2023/04/29 03:51:10;;;;;;;2.83;2.00;;;;;;;21.06;56.83;99159.03;5092423;28;20036;-70
2023/04/29 03:53:36;;;;;;;2.72;1.90;;;;;;;21.07;56.87;99166.06;5092965;28;20024;-69
2023/04/29 03:56:01;;;;;;;2.55;1.77;;;;;;;21.07;56.76;99171.38;5092896;28;20030;-69
2023/04/29 03:58:26;;;;;;;3.00;1.90;;;;;;;21.05;56.97;99165.28;5092802;28;20035;-69
2023/04/29 04:00:52;;;;;;;2.97;1.88;;;;;;;21.05;56.84;99168.81;5092772;28;20036;-67
2023/04/29 04:03:17;;;;;;;2.58;1.77;;;;;;;21.03;56.99;99169.84;5091805;28;20052;-69
2023/04/29 04:05:43;;;;;;;2.08;1.50;;;;;;;21.01;56.84;99171.78;5092335;28;20380;-67
2023/04/29 04:08:09;;;;;;;2.97;1.75;;;;;;;21.03;56.68;99180.47;5074623;28;20042;-68
2023/04/29 04:10:34;;;;;;;3.78;1.88;;;;;;;21.00;56.97;99181.53;5092767;28;20027;-68
2023/04/29 04:13:00;;;;;;;2.78;1.70;;;;;;;21.00;56.98;99185.97;5092728;28;20057;-68
2023/04/29 04:15:25;;;;;;;3.28;1.90;;;;;;;21.02;56.94;99184.06;5092669;28;20078;-69
2023/04/29 04:17:51;;;;;;;3.85;2.10;;;;;;;21.01;56.92;99174.41;5092538;28;20081;-69
2023/04/29 04:20:16;;;;;;;2.97;2.10;;;;;;;20.97;57.02;99170.25;5092251;28;20028;-67
2023/04/29 04:22:41;;;;;;;3.85;1.90;;;;;;;20.98;56.78;99177.25;5092459;28;20039;-69
2023/04/29 04:25:07;;;;;;;2.53;1.70;;;;;;;21.00;56.93;99175.34;5092132;28;20020;-68
2023/04/29 04:27:33;;;;;;;3.55;2.00;;;;;;;20.99;56.89;99174.50;5092469;28;20778;-68
2023/04/29 04:29:58;;;;;;;2.47;1.70;;;;;;;20.96;56.83;99177.34;5092515;28;20148;-67
2023/04/29 04:32:24;;;;;;;2.58;1.80;;;;;;;20.95;57.05;99186.28;5092562;28;20028;-68
2023/04/29 04:34:49;;;;;;;2.92;1.92;;;;;;;20.96;57.00;99192.44;5092144;28;20048;-69
2023/04/29 04:37:15;;;;;;;3.25;2.08;;;;;;;20.95;57.17;99191.56;5092113;28;20378;-67
2023/04/29 04:39:40;;;;;;;2.95;1.90;;;;;;;20.94;57.03;99195.19;5092333;28;20032;-69
2023/04/29 04:42:06;;;;;;;2.85;1.80;;;;;;;20.95;56.98;99203.97;5092032;28;20032;-69
2023/04/29 04:44:32;;;;;;;3.95;1.98;;;;;;;20.98;57.01;99203.78;5073922;28;20031;-70
2023/04/29 04:47:00;;;;;;;3.10;1.90;;;;;;;20.98;56.98;99201.13;5092297;28;20077;-69
2023/04/29 04:49:26;;;;;;;3.25;2.20;;;;;;;20.97;56.96;99200.28;5091761;28;20024;-69
2023/04/29 04:51:51;;;;;;;3.08;2.00;;;;;;;20.97;56.81;99196.78;5091987;28;20024;-69
2023/04/29 04:54:17;;;;;;;2.90;1.90;;;;;;;20.97;56.94;99207.41;5092297;28;20024;-68
2023/04/29 04:56:42;;;;;;;3.10;2.00;;;;;;;20.94;56.97;99208.44;5092019;28;20563;-67
2023/04/29 04:59:08;;;;;;;3.08;2.10;;;;;;;20.96;56.97;99211.00;5092065;28;20024;-69
2023/04/29 05:01:33;;;;;;;3.45;2.15;;;;;;;20.96;56.87;99217.13;5091733;28;20384;-69
2023/04/29 05:03:59;;;;;;;3.85;2.20;;;;;;;20.93;57.04;99212.88;5092039;28;20028;-69
2023/04/29 05:06:25;;;;;;;3.30;2.20;;;;;;;20.92;57.18;99226.28;5092017;28;20026;-68
2023/04/29 05:08:50;;;;;;;3.63;2.00;;;;;;;20.94;56.96;99229.66;5092004;28;20052;-67
2023/04/29 05:11:20;;;;;;;3.30;2.08;;;;;;;20.95;56.89;99235.81;5091916;28;20540;-70
2023/04/29 05:13:46;;;;;;;2.90;1.90;;;;;;;20.93;56.90;99242.06;5092107;28;20080;-69
2023/04/29 05:16:12;;;;;;;3.05;1.80;;;;;;;20.96;56.92;99240.19;5094457;28;20024;-70
2023/04/29 05:18:37;;;;;;;3.30;2.15;;;;;;;20.95;56.89;99241.09;5096015;28;20146;-69
2023/04/29 05:21:03;;;;;;;3.53;1.90;;;;;;;20.94;57.01;99248.22;5096098;28;20039;-69
2023/04/29 05:23:28;;;;;;;2.80;1.80;;;;;;;20.95;56.88;99246.41;5095808;28;20028;-68
2023/04/29 05:25:54;;;;;;;3.67;2.10;;;;;;;20.94;56.98;99250.88;5095855;28;20020;-69
2023/04/29 05:28:20;;;;;;;4.35;2.45;;;;;;;20.90;57.06;99250.22;5096038;28;20016;-67
2023/04/29 05:30:46;;;;;;;2.53;1.80;;;;;;;20.96;56.95;99261.41;5095583;28;20020;-68
2023/04/29 05:33:12;;;;;;;2.60;1.90;;;;;;;20.93;56.97;99254.50;5095610;28;20506;-68
2023/04/29 05:35:37;;;;;;;2.92;2.00;;;;;;;20.92;56.86;99258.94;5095448;28;20040;-68
2023/04/29 05:38:03;;;;;;;4.05;2.42;;;;;;;20.91;56.98;99266.97;5095683;28;20035;-68
2023/04/29 05:40:28;;;;;;;3.00;1.85;;;;;;;20.89;56.91;99260.94;5095430;28;20028;-68
2023/04/29 05:42:54;;;;;;;3.42;1.85;;;;;;;20.91;57.06;99266.97;5095599;28;20028;-69
2023/04/29 05:45:19;;;;;;;3.63;2.10;;;;;;;20.88;56.86;99254.75;5095166;28;20020;-68
2023/04/29 05:47:45;;;;;;;3.72;2.17;;;;;;;20.86;56.95;99261.97;5095655;28;20103;-70
2023/04/29 05:50:10;;;;;;;3.35;2.20;;;;;;;20.91;56.99;99261.66;5095489;28;20024;-67
2023/04/29 05:52:36;;;;;;;2.72;1.83;;;;;;;20.91;56.84;99251.94;5095372;28;20085;-68
2023/04/29 05:55:02;;;;;;;2.53;1.95;;;;;;;20.88;56.87;99252.09;5095551;28;20028;-68
2023/04/29 05:57:27;;;;;;;3.15;1.90;;;;;;;20.89;56.91;99245.00;5095218;28;20034;-69
2023/04/29 05:59:54;;;;;;;3.25;2.08;;;;;;;20.91;57.14;99241.31;5094799;28;20028;-68
2023/04/29 06:02:19;;;;;;;3.67;2.30;;;;;;;20.88;56.88;99236.19;5095226;28;20059;-67
2023/04/29 06:04:51;;;;;;;4.05;2.33;;;;;;;20.88;57.16;99233.53;5094705;28;20028;-68
2023/04/29 06:07:17;;;;;;;3.90;2.15;;;;;;;20.88;56.82;99230.06;5095075;28;20035;-67
2023/04/29 06:09:42;;;;;;;3.45;2.20;;;;;;;20.86;57.26;99221.34;5095178;28;20028;-70
2023/04/29 06:12:08;;;;;;;3.53;2.30;;;;;;;20.86;57.15;99237.25;5095293;28;20028;-68
2023/04/29 06:14:34;;;;;;;3.17;1.90;;;;;;;20.87;57.21;99234.50;5094682;28;20097;-68
2023/04/29 06:16:59;;;;;;;2.88;2.05;;;;;;;20.87;57.02;99233.66;5095221;28;20036;-68
2023/04/29 06:19:25;;;;;;;3.10;2.03;;;;;;;20.88;57.11;99235.38;5094838;28;20024;-68
2023/04/29 06:21:50;;;;;;;3.55;2.10;;;;;;;20.87;57.23;99242.47;5094839;28;20060;-68
2023/04/29 06:24:16;;;;;;;3.45;2.30;;;;;;;20.87;57.08;99239.81;5094773;28;20438;-67
2023/04/29 06:26:41;;;;;;;4.18;2.38;;;;;;;20.87;57.08;99250.41;5093339;28;20047;-69
2023/04/29 06:29:07;;;;;;;3.13;2.00;;;;;;;20.87;57.16;99255.72;5094518;28;20035;-69
2023/04/29 06:31:32;;;;;;;3.38;2.33;;;;;;;20.90;56.96;99281.19;5094476;28;20032;-67
2023/04/29 06:33:58;;;;;;;3.28;2.00;;;;;;;20.87;57.00;99278.75;5094353;28;20028;-68
2023/04/29 06:36:23;;;;;;;3.45;1.95;;;;;;;20.88;57.16;99283.94;5094509;28;20032;-67
2023/04/29 06:38:49;;;;;;;2.88;2.20;;;;;;;20.89;57.29;99287.44;5094639;28;20028;-67
2023/04/29 06:41:14;;;;;;;2.88;1.90;;;;;;;20.87;57.22;99287.53;5094223;28;20035;-67
2023/04/29 06:43:42;;;;;;;3.88;2.35;;;;;;;20.87;57.09;99294.66;5094095;28;20035;-69
2023/04/29 06:46:07;;;;;;;3.65;2.38;;;;;;;20.87;56.82;99292.84;5094103;28;20024;-69
2023/04/29 06:48:33;;;;;;;3.88;2.22;;;;;;;20.88;56.97;99289.25;5094331;28;20522;-68
2023/04/29 06:50:58;;;;;;;3.15;2.00;;;;;;;20.84;57.22;99293.03;5094570;28;20035;-69
2023/04/29 06:53:24;;;;;;;2.53;1.80;;;;;;;20.86;56.93;99288.50;5094154;28;20024;-68
2023/04/29 06:55:50;;;;;;;3.47;2.05;;;;;;;20.87;57.01;99297.31;5094102;28;20031;-68
2023/04/29 06:58:17;;;;;;;2.88;1.88;;;;;;;20.85;57.13;99294.75;5093770;28;20024;-68
2023/04/29 07:00:49;;;;;;;3.20;1.90;;;;;;;20.82;57.10;99292.25;5093898;28;20036;-68
2023/04/29 07:03:17;;;;;;;3.58;2.30;;;;;;;20.85;57.19;99294.75;5094144;28;20087;-67
2023/04/29 07:05:44;;;;;;;2.80;2.28;;;;;;;20.85;57.01;99294.75;5093764;28;20027;-69
2023/04/29 07:08:11;;;;;;;2.88;2.03;;;;;;;20.87;57.20;99302.63;5093814;28;20024;-69
2023/04/29 07:10:37;;;;;;;3.05;2.10;;;;;;;20.88;56.89;99306.97;5093926;28;20032;-67
2023/04/29 07:13:02;;;;;;;3.47;2.15;;;;;;;20.85;57.08;99323.06;5093723;28;20107;-67
2023/04/29 07:15:29;;;;;;;3.20;1.83;;;;;;;20.84;57.03;99330.16;5093700;28;20024;-67
2023/04/29 07:17:55;;;;;;;4.10;2.00;;;;;;;20.82;57.28;99316.13;5093628;28;20472;-68
2023/04/29 07:20:21;;;;;;;3.05;2.30;;;;;;;20.80;57.27;99302.13;5093585;28;20024;-68
2023/04/29 07:22:46;;;;;;;2.78;1.85;;;;;;;20.80;57.15;99291.50;5093483;28;20039;-68
2023/04/29 07:25:13;;;;;;;3.05;2.03;;;;;;;20.83;57.23;99291.31;5093625;28;20016;-68
2023/04/29 07:27:39;;;;;;;3.22;2.10;;;;;;;20.79;57.16;99306.56;5093196;28;20154;-68
2023/04/29 07:30:05;;;;;;;2.92;2.03;;;;;;;20.79;57.12;99326.94;5093379;28;20111;-68
2023/04/29 07:32:31;;;;;;;3.17;2.08;;;;;;;20.77;57.21;99328.81;5093415;28;20136;-67
2023/04/29 07:34:57;;;;;;;2.60;1.98;;;;;;;20.78;57.17;99325.22;5093319;28;20553;-68
2023/04/29 07:37:22;;;;;;;3.35;2.10;;;;;;;20.77;57.10;99312.91;5093201;28;20107;-68
2023/04/29 07:39:48;;;;;;;4.20;2.30;;;;;;;20.75;57.36;99314.81;5093439;28;20040;-69
2023/04/29 07:42:13;;;;;;;3.03;1.98;;;;;;;20.77;57.07;99307.59;5092925;28;20387;-68
2023/04/29 07:44:40;;;;;;;3.95;2.50;;;;;;;20.78;57.04;99314.63;5092978;28;20047;-69
2023/04/29 07:47:05;;;;;;;3.63;2.17;;;;;;;20.77;57.23;99313.75;5093244;28;20027;-68
2023/04/29 07:49:31;;;;;;;3.47;2.20;;;;;;;20.79;57.14;99311.03;5093198;28;20024;-69
2023/04/29 07:51:56;;;;;;;2.83;2.03;;;;;;;20.78;56.98;99314.63;5074865;28;20039;-69
2023/04/29 07:54:22;;;;;;;3.67;2.22;;;;;;;20.76;57.29;99311.19;5092459;28;20077;-69
2023/04/29 07:56:48;;;;;;;3.17;2.30;;;;;;;20.75;57.05;99326.28;5092469;28;20024;-69
2023/04/29 07:59:14;;;;;;;3.40;2.20;;;;;;;20.75;57.24;99325.41;5092981;28;20028;-68
2023/04/29 08:01:40;;;;;;;3.55;2.20;;;;;;;20.76;57.19;99332.41;5092761;28;20043;-69
2023/04/29 08:04:06;;;;;;;3.92;2.38;;;;;;;20.76;57.24;99340.38;5092540;28;20020;-66
2023/04/29 08:06:32;;;;;;;3.00;2.05;;;;;;;20.74;57.33;99339.63;5092717;28;20024;-69
2023/04/29 08:08:57;;;;;;;3.50;2.45;;;;;;;20.76;57.12;99345.66;5092900;28;20047;-69
2023/04/29 08:11:23;;;;;;;3.47;2.33;;;;;;;20.76;57.15;99348.31;5092471;28;20024;-69
2023/04/29 08:13:49;;;;;;;3.53;2.30;;;;;;;20.78;57.22;99351.75;5092617;28;20515;-68
2023/04/29 08:16:14;;;;;;;3.30;2.30;;;;;;;20.79;57.17;99345.50;5092712;28;20035;-68
2023/04/29 08:18:40;;;;;;;3.58;2.10;;;;;;;20.77;57.28;99340.28;5092539;28;20035;-69
2023/04/29 08:21:05;;;;;;;3.88;2.25;;;;;;;20.79;57.26;99332.22;5092457;28;20034;-68
2023/04/29 08:23:31;;;;;;;4.60;2.75;;;;;;;20.75;57.27;99326.28;5092575;28;20039;-70
2023/04/29 08:25:57;;;;;;;3.00;2.13;;;;;;;20.79;57.28;99326.94;5091839;28;20047;-67
2023/04/29 08:28:22;;;;;;;3.53;2.40;;;;;;;20.79;57.07;99327.75;5092164;28;20043;-69
2023/04/29 08:30:48;;;;;;;3.60;2.25;;;;;;;20.76;57.10;99333.28;5092426;28;20464;-68
2023/04/29 08:33:14;;;;;;;4.05;2.28;;;;;;;20.75;57.19;99346.63;5074073;28;20024;-68
2023/04/29 08:35:40;;;;;;;4.25;2.45;;;;;;;20.74;57.35;99334.31;5073985;28;20044;-69
2023/04/29 08:38:08;;;;;;;3.85;2.33;;;;;;;20.77;57.24;99323.50;5092316;28;20111;-68
2023/04/29 08:40:42;;;;;;;3.15;2.50;;;;;;;20.77;57.03;99318.19;5091796;28;20026;-68
2023/04/29 08:43:09;;;;;;;3.00;2.17;;;;;;;20.78;57.13;99325.22;5092094;28;20016;-67
2023/04/29 08:45:35;;;;;;;4.13;2.63;;;;;;;20.79;57.14;99329.59;5092128;28;20572;-67
2023/04/29 08:48:02;;;;;;;3.53;2.03;;;;;;;20.77;57.21;99329.66;5092222;28;20481;-69
2023/04/29 08:50:29;;;;;;;4.95;2.42;;;;;;;20.75;57.13;99330.72;5091793;28;20028;-69
2023/04/29 08:52:55;;;;;;;4.47;2.80;;;;;;;20.77;57.11;99339.41;5092015;28;20012;-67
2023/04/29 08:55:20;;;;;;;4.57;2.50;;;;;;;20.77;57.23;99334.09;5091540;28;20024;-68
2023/04/29 08:57:49;;;;;;;2.90;2.13;;;;;;;20.74;57.23;99329.00;5092244;28;20416;-69
2023/04/29 09:00:15;;;;;;;4.65;2.70;;;;;;;20.74;57.23;99329.00;5091994;28;20039;-69
2023/04/29 09:02:49;;;;;;;3.63;2.33;;;;;;;20.76;57.09;99332.41;5092019;28;20020;-68
2023/04/29 09:05:15;;;;;;;4.07;2.50;;;;;;;20.77;57.25;99334.09;5091873;28;20035;-68
2023/04/29 09:07:41;;;;;;;3.30;2.33;;;;;;;20.78;57.00;99330.53;5092077;28;20020;-69
2023/04/29 09:10:07;;;;;;;3.25;2.15;;;;;;;20.82;57.11;99336.50;5091637;28;20496;-68
2023/04/29 09:12:32;;;;;;;3.40;2.45;;;;;;;20.78;57.25;99335.84;5092071;28;20020;-70
2023/04/29 09:14:58;;;;;;;3.78;2.20;;;;;;;20.78;56.97;99341.13;5091889;28;20024;-67
2023/04/29 09:17:44;;;;;;;3.67;2.63;;;;;;;20.81;57.06;99330.31;5091871;28;20023;-69
2023/04/29 09:20:21;;;;;;;3.90;2.55;;;;;;;20.79;56.92;99330.41;5091705;28;20024;-66
2023/04/29 09:23:05;;;;;;;4.05;2.38;;;;;;;20.81;57.13;99340.94;5091735;28;20024;-68
2023/04/29 09:25:31;;;;;;;3.10;2.28;;;;;;;20.84;56.83;99345.19;5091732;28;20044;-67
2023/04/29 09:27:57;;;;;;;4.18;2.72;;;;;;;20.87;56.76;99345.88;5091885;28;20047;-69
2023/04/29 09:30:23;;;;;;;3.65;2.67;;;;;;;20.84;57.06;99348.72;5073419;28;20050;-69
2023/04/29 09:33:06;;;;;;;4.15;2.60;;;;;;;20.86;56.79;99340.66;5091736;28;20031;-68
2023/04/29 09:35:32;;;;;;;3.70;2.50;;;;;;;20.88;57.00;99347.59;5071203;28;20131;-67
2023/04/29 09:38:09;;;;;;;3.97;2.80;;;;;;;20.87;56.74;99340.59;5071113;28;20119;-69
2023/04/29 09:40:34;;;;;;;4.63;3.05;;;;;;;20.85;56.86;99337.19;5071606;28;20515;-69
2023/04/29 09:43:00;;;;;;;4.55;2.53;;;;;;;20.85;56.91;99341.63;5072607;28;20048;-69
2023/04/29 09:45:37;;;;;;;3.65;2.35;;;;;;;20.86;56.94;99346.84;5091701;28;20480;-68
2023/04/29 09:48:07;;;;;;;3.60;2.53;;;;;;;20.87;56.76;99342.41;5091471;28;20020;-67
2023/04/29 09:50:37;;;;;;;3.63;2.53;;;;;;;20.89;56.74;99353.75;5091575;28;20488;-68
2023/04/29 09:53:05;;;;;;;4.03;2.70;;;;;;;20.90;56.70;99361.63;5091306;28;20032;-69
2023/04/29 09:55:30;;;;;;;3.35;2.10;;;;;;;20.89;56.88;99364.38;5091484;28;20032;-68
2023/04/29 09:57:57;;;;;;;3.92;2.40;;;;;;;20.91;56.76;99368.63;5091515;28;20069;-69
2023/04/29 10:00:24;;;;;;;4.10;2.42;;;;;;;20.93;56.81;99374.69;5091771;28;20040;-69
2023/04/29 10:02:52;;;;;;;3.45;2.50;;;;;;;20.92;56.80;99370.31;5095165;28;20415;-68
2023/04/29 10:05:18;;;;;;;3.55;2.38;;;;;;;20.93;56.85;99365.88;5094925;28;20020;-68
2023/04/29 10:07:50;;;;;;;4.03;2.63;;;;;;;20.93;56.80;99360.59;5094677;28;20076;-69
2023/04/29 10:10:16;;;;;;;3.88;2.47;;;;;;;20.97;56.79;99359.41;5094869;28;20492;-69
2023/04/29 10:12:43;;;;;;;3.58;2.30;;;;;;;20.97;56.74;99361.25;5095039;28;20115;-69
2023/04/29 10:15:08;;;;;;;4.20;2.50;;;;;;;20.98;56.68;99362.94;5076601;28;20106;-69
2023/04/29 10:17:51;;;;;;;3.83;2.45;;;;;;;20.97;56.66;99363.88;5094847;28;20453;-69
2023/04/29 10:20:24;;;;;;;3.70;2.30;;;;;;;20.95;56.68;99363.97;5094824;28;20021;-69
2023/04/29 10:22:55;;;;;;;4.30;2.90;;;;;;;20.95;56.74;99352.50;5094113;28;20430;-69
2023/04/29 10:25:23;;;;;;;4.55;2.92;;;;;;;20.97;56.62;99366.53;5094848;28;20519;-69
2023/04/29 10:27:52;;;;;;;4.30;2.78;;;;;;;20.99;56.62;99369.94;5094822;28;20028;-69
2023/04/29 10:30:18;;;;;;;4.07;2.55;;;;;;;21.00;56.54;99376.94;5094850;28;20031;-70
2023/04/29 10:32:45;;;;;;;4.15;3.00;;;;;;;20.99;56.51;99369.94;5094741;28;20055;-69
2023/04/29 10:35:13;;;;;;;3.83;2.47;;;;;;;21.01;56.49;99370.72;5093997;28;20500;-69
2023/04/29 10:37:43;;;;;;;4.75;2.42;;;;;;;21.00;56.53;99361.91;5094587;28;20027;-69
2023/04/29 10:40:12;;;;;;;3.83;2.47;;;;;;;21.02;56.53;99375.06;5094493;28;20028;-69
2023/04/29 10:42:48;;;;;;;3.67;2.70;;;;;;;21.02;56.47;99367.09;5094306;28;20663;-68
2023/04/29 10:45:21;;;;;;;4.22;2.72;;;;;;;21.02;56.57;99364.47;5094308;28;20115;-69
2023/04/29 10:48:04;;;;;;;4.07;2.75;;;;;;;21.01;56.66;99360.09;5094587;28;20035;-69
2023/04/29 10:50:34;;;;;;;4.28;2.42;;;;;;;21.03;56.68;99360.84;5093892;28;20055;-69
2023/04/29 10:53:03;;;;;;;3.80;2.58;;;;;;;21.01;56.57;99368.06;5094382;28;20385;-69
2023/04/29 10:55:30;;;;;;;5.30;2.67;;;;;;;21.04;56.47;99370.50;5094254;28;20085;-69
2023/04/29 10:57:56;;;;;;;4.00;2.50;;;;;;;21.03;56.61;99366.16;5094073;28;20078;-68
2023/04/29 11:00:32;;;;;;;3.67;2.60;;;;;;;21.04;56.48;99373.16;5094037;28;20036;-69
2023/04/29 11:03:00;;;;;;;3.78;2.28;;;;;;;21.03;56.56;99371.47;5091653;28;20036;-69
2023/04/29 11:05:31;;;;;;;4.22;2.60;;;;;;;21.04;56.65;99367.84;5075360;28;20055;-69
2023/04/29 11:08:12;;;;;;;3.80;2.38;;;;;;;21.04;56.49;99367.84;5093833;28;20043;-69
2023/04/29 11:10:42;;;;;;;3.58;2.55;;;;;;;21.03;56.52;99364.34;5094001;28;20059;-67
2023/04/29 11:13:28;;;;;;;3.92;2.63;;;;;;;21.04;56.70;99360.75;5093340;28;20032;-67
2023/04/29 11:16:08;;;;;;;3.35;2.35;;;;;;;21.04;56.55;99363.41;5093824;28;20036;-68
2023/04/29 11:18:52;;;;;;;3.38;2.40;;;;;;;21.06;56.53;99365.94;5093558;28;20100;-69
2023/04/29 11:21:18;;;;;;;4.15;2.75;;;;;;;21.05;56.71;99358.94;5075617;28;20024;-69
2023/04/29 11:23:44;;;;;;;4.55;2.90;;;;;;;21.05;56.66;99364.25;5109361;28;20028;-69
2023/04/29 11:26:09;;;;;;;3.65;2.28;;;;;;;21.07;56.56;99357.06;5093685;28;20028;-68
2023/04/29 11:28:35;;;;;;;4.10;2.92;;;;;;;21.07;56.67;99346.44;5093439;28;20065;-69
2023/04/29 11:31:02;;;;;;;3.70;2.90;;;;;;;21.08;56.50;99342.84;5093654;28;20035;-69
2023/04/29 11:33:31;;;;;;;4.07;2.75;;;;;;;21.08;56.53;99341.97;5093065;28;20021;-69
2023/04/29 11:35:57;;;;;;;4.90;2.90;;;;;;;21.08;56.81;99337.53;5093206;28;20047;-67